sensor_id;sensor_type;location;lat;lon;timestamp;P1;durP1;ratioP1;P2;durP2;ratioP2
72408;SDS011;60402;48.082;11.628;2022-08-03T00:01:36;2.30;;;1.00;;
72408;SDS011;60402;48.082;11.628;2022-08-03T00:04:04;3.15;;;1.20;;
72408;SDS011;60402;48.082;11.628;2022-08-03T00:06:30;3.20;;;1.17;;
72408;SDS011;60402;48.082;11.628;2022-08-03T00:08:56;3.03;;;1.10;;
72408;SDS011;60402;48.082;11.628;2022-08-03T00:11:21;2.03;;;1.08;;
72408;SDS011;60402;48.082;11.628;2022-08-03T00:13:47;4.65;;;1.20;;
72408;SDS011;60402;48.082;11.628;2022-08-03T00:16:12;2.47;;;1.08;;
72408;SDS011;60402;48.082;11.628;2022-08-03T00:18:38;2.70;;;1.02;;
72408;SDS011;60402;48.082;11.628;2022-08-03T00:21:04;2.85;;;1.52;;
72408;SDS011;60402;48.082;11.628;2022-08-03T00:23:29;3.28;;;1.10;;
72408;SDS011;60402;48.082;11.628;2022-08-03T00:25:55;2.58;;;0.93;;
72408;SDS011;60402;48.082;11.628;2022-08-03T00:28:21;2.83;;;1.10;;
72408;SDS011;60402;48.082;11.628;2022-08-03T00:30:46;3.10;;;1.35;;
72408;SDS011;60402;48.082;11.628;2022-08-03T00:33:12;1.88;;;1.00;;
72408;SDS011;60402;48.082;11.628;2022-08-03T00:35:37;1.83;;;0.90;;
72408;SDS011;60402;48.082;11.628;2022-08-03T00:38:03;2.78;;;1.30;;
72408;SDS011;60402;48.082;11.628;2022-08-03T00:40:28;2.00;;;1.05;;
72408;SDS011;60402;48.082;11.628;2022-08-03T00:42:55;2.22;;;1.10;;
72408;SDS011;60402;48.082;11.628;2022-08-03T00:45:26;1.40;;;1.00;;
72408;SDS011;60402;48.082;11.628;2022-08-03T00:47:53;2.58;;;1.10;;
72408;SDS011;60402;48.082;11.628;2022-08-03T00:50:20;1.75;;;1.10;;
72408;SDS011;60402;48.082;11.628;2022-08-03T00:52:47;2.15;;;0.93;;
72408;SDS011;60402;48.082;11.628;2022-08-03T00:55:13;2.60;;;1.10;;
72408;SDS011;60402;48.082;11.628;2022-08-03T00:57:38;2.25;;;0.98;;
72408;SDS011;60402;48.082;11.628;2022-08-03T01:00:05;2.55;;;1.23;;
72408;SDS011;60402;48.082;11.628;2022-08-03T01:02:32;2.25;;;1.10;;
72408;SDS011;60402;48.082;11.628;2022-08-03T01:04:58;2.28;;;1.23;;
72408;SDS011;60402;48.082;11.628;2022-08-03T01:07:36;2.65;;;1.30;;
72408;SDS011;60402;48.082;11.628;2022-08-03T01:13:02;3.22;;;1.10;;
72408;SDS011;60402;48.082;11.628;2022-08-03T01:21:03;1.92;;;1.00;;
72408;SDS011;60402;48.082;11.628;2022-08-03T01:26:41;2.92;;;1.10;;
72408;SDS011;60402;48.082;11.628;2022-08-03T01:32:08;2.00;;;1.10;;
72408;SDS011;60402;48.082;11.628;2022-08-03T01:34:42;2.00;;;1.10;;
72408;SDS011;60402;48.082;11.628;2022-08-03T01:37:11;4.25;;;1.10;;
72408;SDS011;60402;48.082;11.628;2022-08-03T01:39:43;2.25;;;1.05;;
72408;SDS011;60402;48.082;11.628;2022-08-03T01:42:09;1.90;;;0.93;;
72408;SDS011;60402;48.082;11.628;2022-08-03T01:44:39;2.17;;;1.10;;
72408;SDS011;60402;48.082;11.628;2022-08-03T01:47:06;1.70;;;1.00;;
72408;SDS011;60402;48.082;11.628;2022-08-03T01:49:36;2.05;;;0.98;;
72408;SDS011;60402;48.082;11.628;2022-08-03T01:52:03;4.35;;;1.30;;
72408;SDS011;60402;48.082;11.628;2022-08-03T01:54:31;1.80;;;0.90;;
72408;SDS011;60402;48.082;11.628;2022-08-03T01:57:00;2.50;;;1.00;;
72408;SDS011;60402;48.082;11.628;2022-08-03T01:59:27;2.20;;;1.10;;
72408;SDS011;60402;48.082;11.628;2022-08-03T02:01:54;2.03;;;0.98;;
72408;SDS011;60402;48.082;11.628;2022-08-03T02:04:21;2.38;;;1.13;;
72408;SDS011;60402;48.082;11.628;2022-08-03T02:06:49;2.60;;;1.00;;
72408;SDS011;60402;48.082;11.628;2022-08-03T02:09:16;1.35;;;0.82;;
72408;SDS011;60402;48.082;11.628;2022-08-03T02:11:45;1.60;;;0.85;;
72408;SDS011;60402;48.082;11.628;2022-08-03T02:14:11;2.08;;;1.00;;
72408;SDS011;60402;48.082;11.628;2022-08-03T02:16:38;2.28;;;1.15;;
72408;SDS011;60402;48.082;11.628;2022-08-03T02:19:04;2.17;;;1.10;;
72408;SDS011;60402;48.082;11.628;2022-08-03T02:21:31;2.85;;;1.23;;
72408;SDS011;60402;48.082;11.628;2022-08-03T02:23:59;4.22;;;1.20;;
72408;SDS011;60402;48.082;11.628;2022-08-03T02:26:26;1.73;;;1.00;;
72408;SDS011;60402;48.082;11.628;2022-08-03T02:28:54;3.38;;;1.20;;
72408;SDS011;60402;48.082;11.628;2022-08-03T02:31:25;2.60;;;1.20;;
72408;SDS011;60402;48.082;11.628;2022-08-03T02:34:00;2.05;;;1.05;;
72408;SDS011;60402;48.082;11.628;2022-08-03T02:36:29;2.80;;;1.13;;
72408;SDS011;60402;48.082;11.628;2022-08-03T02:38:59;3.25;;;1.10;;
72408;SDS011;60402;48.082;11.628;2022-08-03T02:41:29;2.35;;;1.13;;
72408;SDS011;60402;48.082;11.628;2022-08-03T02:43:59;2.47;;;1.10;;
72408;SDS011;60402;48.082;11.628;2022-08-03T02:46:29;2.75;;;1.15;;
72408;SDS011;60402;48.082;11.628;2022-08-03T02:48:58;1.83;;;0.93;;
72408;SDS011;60402;48.082;11.628;2022-08-03T02:51:25;2.22;;;1.33;;
72408;SDS011;60402;48.082;11.628;2022-08-03T02:53:54;2.70;;;1.00;;
72408;SDS011;60402;48.082;11.628;2022-08-03T02:56:21;2.90;;;1.10;;
72408;SDS011;60402;48.082;11.628;2022-08-03T02:58:49;3.17;;;1.00;;
72408;SDS011;60402;48.082;11.628;2022-08-03T03:01:18;2.90;;;1.10;;
72408;SDS011;60402;48.082;11.628;2022-08-03T03:03:45;1.83;;;0.93;;
72408;SDS011;60402;48.082;11.628;2022-08-03T03:06:13;2.85;;;1.08;;
72408;SDS011;60402;48.082;11.628;2022-08-03T03:08:40;1.58;;;1.08;;
72408;SDS011;60402;48.082;11.628;2022-08-03T03:11:06;2.03;;;0.98;;
72408;SDS011;60402;48.082;11.628;2022-08-03T03:13:32;2.60;;;1.25;;
72408;SDS011;60402;48.082;11.628;2022-08-03T03:16:01;1.92;;;0.95;;
72408;SDS011;60402;48.082;11.628;2022-08-03T03:18:30;4.18;;;1.20;;
72408;SDS011;60402;48.082;11.628;2022-08-03T03:20:57;1.73;;;1.10;;
72408;SDS011;60402;48.082;11.628;2022-08-03T03:23:24;2.97;;;1.00;;
72408;SDS011;60402;48.082;11.628;2022-08-03T03:25:52;2.13;;;1.15;;
72408;SDS011;60402;48.082;11.628;2022-08-03T03:28:20;3.33;;;1.00;;
72408;SDS011;60402;48.082;11.628;2022-08-03T03:30:47;2.25;;;1.20;;
72408;SDS011;60402;48.082;11.628;2022-08-03T03:33:13;3.70;;;1.20;;
72408;SDS011;60402;48.082;11.628;2022-08-03T03:35:39;2.88;;;1.00;;
72408;SDS011;60402;48.082;11.628;2022-08-03T03:38:07;1.77;;;0.95;;
72408;SDS011;60402;48.082;11.628;2022-08-03T03:40:36;1.45;;;0.90;;
72408;SDS011;60402;48.082;11.628;2022-08-03T03:43:05;2.65;;;1.00;;
72408;SDS011;60402;48.082;11.628;2022-08-03T03:45:32;1.98;;;1.10;;
72408;SDS011;60402;48.082;11.628;2022-08-03T03:47:59;2.33;;;1.15;;
72408;SDS011;60402;48.082;11.628;2022-08-03T03:50:25;2.25;;;1.05;;
72408;SDS011;60402;48.082;11.628;2022-08-03T03:52:51;2.85;;;1.23;;
72408;SDS011;60402;48.082;11.628;2022-08-03T03:55:17;2.03;;;1.10;;
72408;SDS011;60402;48.082;11.628;2022-08-03T03:57:42;2.92;;;1.20;;
72408;SDS011;60402;48.082;11.628;2022-08-03T04:00:09;4.53;;;1.35;;
72408;SDS011;60402;48.082;11.628;2022-08-03T04:02:37;1.73;;;0.90;;
72408;SDS011;60402;48.082;11.628;2022-08-03T04:05:03;3.60;;;1.20;;
72408;SDS011;60402;48.082;11.628;2022-08-03T04:07:57;3.08;;;1.20;;
72408;SDS011;60402;48.082;11.628;2022-08-03T04:10:46;1.50;;;0.93;;
72408;SDS011;60402;48.082;11.628;2022-08-03T04:13:31;2.50;;;1.00;;
72408;SDS011;60402;48.082;11.628;2022-08-03T04:15:59;2.47;;;1.00;;
72408;SDS011;60402;48.082;11.628;2022-08-03T04:18:26;2.35;;;1.00;;
72408;SDS011;60402;48.082;11.628;2022-08-03T04:23:23;2.22;;;1.20;;
72408;SDS011;60402;48.082;11.628;2022-08-03T04:25:50;3.25;;;1.33;;
72408;SDS011;60402;48.082;11.628;2022-08-03T04:28:18;2.88;;;1.35;;
72408;SDS011;60402;48.082;11.628;2022-08-03T04:30:46;2.80;;;1.33;;
72408;SDS011;60402;48.082;11.628;2022-08-03T04:33:15;3.03;;;1.13;;
72408;SDS011;60402;48.082;11.628;2022-08-03T04:35:41;2.85;;;1.10;;
72408;SDS011;60402;48.082;11.628;2022-08-03T04:38:08;2.17;;;1.10;;
72408;SDS011;60402;48.082;11.628;2022-08-03T04:40:38;3.47;;;1.10;;
72408;SDS011;60402;48.082;11.628;2022-08-03T04:43:06;2.35;;;1.10;;
72408;SDS011;60402;48.082;11.628;2022-08-03T04:45:34;2.25;;;1.00;;
72408;SDS011;60402;48.082;11.628;2022-08-03T04:48:00;2.50;;;1.10;;
72408;SDS011;60402;48.082;11.628;2022-08-03T04:50:26;3.92;;;1.08;;
72408;SDS011;60402;48.082;11.628;2022-08-03T04:52:52;2.53;;;1.10;;
72408;SDS011;60402;48.082;11.628;2022-08-03T04:55:24;4.53;;;1.30;;
72408;SDS011;60402;48.082;11.628;2022-08-03T04:57:59;3.10;;;1.10;;
72408;SDS011;60402;48.082;11.628;2022-08-03T05:00:25;3.75;;;1.33;;
72408;SDS011;60402;48.082;11.628;2022-08-03T05:02:51;2.60;;;1.40;;
72408;SDS011;60402;48.082;11.628;2022-08-03T05:05:17;2.45;;;1.05;;
72408;SDS011;60402;48.082;11.628;2022-08-03T05:07:43;3.08;;;1.50;;
72408;SDS011;60402;48.082;11.628;2022-08-03T05:10:09;3.22;;;1.40;;
72408;SDS011;60402;48.082;11.628;2022-08-03T05:12:35;2.55;;;1.30;;
72408;SDS011;60402;48.082;11.628;2022-08-03T05:15:00;2.30;;;1.25;;
72408;SDS011;60402;48.082;11.628;2022-08-03T05:17:26;2.70;;;1.20;;
72408;SDS011;60402;48.082;11.628;2022-08-03T05:19:52;3.38;;;1.40;;
72408;SDS011;60402;48.082;11.628;2022-08-03T05:22:18;3.10;;;1.20;;
72408;SDS011;60402;48.082;11.628;2022-08-03T05:24:43;2.55;;;1.10;;
72408;SDS011;60402;48.082;11.628;2022-08-03T05:27:08;2.63;;;1.20;;
72408;SDS011;60402;48.082;11.628;2022-08-03T05:29:34;2.33;;;1.23;;
72408;SDS011;60402;48.082;11.628;2022-08-03T05:32:00;4.05;;;1.27;;
72408;SDS011;60402;48.082;11.628;2022-08-03T05:34:26;3.88;;;1.33;;
72408;SDS011;60402;48.082;11.628;2022-08-03T05:36:51;3.58;;;1.60;;
72408;SDS011;60402;48.082;11.628;2022-08-03T05:39:17;2.58;;;1.27;;
72408;SDS011;60402;48.082;11.628;2022-08-03T05:41:42;1.98;;;1.05;;
72408;SDS011;60402;48.082;11.628;2022-08-03T05:44:07;2.72;;;1.17;;
72408;SDS011;60402;48.082;11.628;2022-08-03T05:46:33;2.85;;;1.33;;
72408;SDS011;60402;48.082;11.628;2022-08-03T05:48:58;3.38;;;1.33;;
72408;SDS011;60402;48.082;11.628;2022-08-03T05:51:23;3.67;;;2.05;;
72408;SDS011;60402;48.082;11.628;2022-08-03T05:53:49;1.92;;;1.08;;
72408;SDS011;60402;48.082;11.628;2022-08-03T05:56:14;2.72;;;1.30;;
72408;SDS011;60402;48.082;11.628;2022-08-03T05:58:39;2.97;;;1.50;;
72408;SDS011;60402;48.082;11.628;2022-08-03T06:01:05;3.58;;;1.20;;
72408;SDS011;60402;48.082;11.628;2022-08-03T06:03:31;3.35;;;1.20;;
72408;SDS011;60402;48.082;11.628;2022-08-03T06:05:56;2.08;;;1.02;;
72408;SDS011;60402;48.082;11.628;2022-08-03T06:08:22;4.22;;;1.45;;
72408;SDS011;60402;48.082;11.628;2022-08-03T06:10:48;2.40;;;1.27;;
72408;SDS011;60402;48.082;11.628;2022-08-03T06:13:13;2.50;;;1.20;;
72408;SDS011;60402;48.082;11.628;2022-08-03T06:15:39;2.70;;;1.10;;
72408;SDS011;60402;48.082;11.628;2022-08-03T06:18:05;1.88;;;1.08;;
72408;SDS011;60402;48.082;11.628;2022-08-03T06:20:31;2.83;;;1.30;;
72408;SDS011;60402;48.082;11.628;2022-08-03T06:22:57;3.42;;;1.20;;
72408;SDS011;60402;48.082;11.628;2022-08-03T06:25:24;2.10;;;1.05;;
72408;SDS011;60402;48.082;11.628;2022-08-03T06:27:50;2.75;;;1.10;;
72408;SDS011;60402;48.082;11.628;2022-08-03T06:30:15;2.10;;;1.00;;
72408;SDS011;60402;48.082;11.628;2022-08-03T06:32:41;1.98;;;1.00;;
72408;SDS011;60402;48.082;11.628;2022-08-03T06:35:07;2.10;;;1.00;;
72408;SDS011;60402;48.082;11.628;2022-08-03T06:37:40;2.58;;;1.20;;
72408;SDS011;60402;48.082;11.628;2022-08-03T06:40:07;4.18;;;1.17;;
72408;SDS011;60402;48.082;11.628;2022-08-03T06:42:33;3.97;;;1.02;;
72408;SDS011;60402;48.082;11.628;2022-08-03T06:44:58;2.45;;;1.00;;
72408;SDS011;60402;48.082;11.628;2022-08-03T06:47:24;1.83;;;1.00;;
72408;SDS011;60402;48.082;11.628;2022-08-03T06:49:49;2.42;;;1.00;;
72408;SDS011;60402;48.082;11.628;2022-08-03T06:52:14;2.63;;;0.90;;
72408;SDS011;60402;48.082;11.628;2022-08-03T06:54:39;2.10;;;1.13;;
72408;SDS011;60402;48.082;11.628;2022-08-03T06:57:05;2.72;;;1.00;;
72408;SDS011;60402;48.082;11.628;2022-08-03T06:59:32;1.80;;;0.98;;
72408;SDS011;60402;48.082;11.628;2022-08-03T07:01:57;2.30;;;0.90;;
72408;SDS011;60402;48.082;11.628;2022-08-03T07:04:23;2.72;;;1.05;;
72408;SDS011;60402;48.082;11.628;2022-08-03T07:06:48;2.33;;;1.00;;
72408;SDS011;60402;48.082;11.628;2022-08-03T07:09:13;2.08;;;1.20;;
72408;SDS011;60402;48.082;11.628;2022-08-03T07:11:39;2.30;;;0.80;;
72408;SDS011;60402;48.082;11.628;2022-08-03T07:14:04;2.22;;;1.00;;
72408;SDS011;60402;48.082;11.628;2022-08-03T07:16:29;3.57;;;0.90;;
72408;SDS011;60402;48.082;11.628;2022-08-03T07:18:54;3.75;;;1.10;;
72408;SDS011;60402;48.082;11.628;2022-08-03T07:21:20;5.28;;;1.10;;
72408;SDS011;60402;48.082;11.628;2022-08-03T07:23:45;2.38;;;0.77;;
72408;SDS011;60402;48.082;11.628;2022-08-03T07:26:11;3.20;;;1.00;;
72408;SDS011;60402;48.082;11.628;2022-08-03T07:28:37;4.30;;;1.00;;
72408;SDS011;60402;48.082;11.628;2022-08-03T07:31:02;1.80;;;1.00;;
72408;SDS011;60402;48.082;11.628;2022-08-03T07:33:27;2.63;;;1.10;;
72408;SDS011;60402;48.082;11.628;2022-08-03T07:35:53;2.63;;;1.05;;
72408;SDS011;60402;48.082;11.628;2022-08-03T07:38:18;1.60;;;0.85;;
72408;SDS011;60402;48.082;11.628;2022-08-03T07:40:43;1.55;;;1.00;;
72408;SDS011;60402;48.082;11.628;2022-08-03T07:43:09;1.08;;;0.60;;
72408;SDS011;60402;48.082;11.628;2022-08-03T07:45:34;2.72;;;0.90;;
72408;SDS011;60402;48.082;11.628;2022-08-03T07:47:59;2.42;;;0.90;;
72408;SDS011;60402;48.082;11.628;2022-08-03T07:50:25;1.33;;;0.75;;
72408;SDS011;60402;48.082;11.628;2022-08-03T07:52:50;2.83;;;0.80;;
72408;SDS011;60402;48.082;11.628;2022-08-03T07:55:18;1.42;;;0.90;;
72408;SDS011;60402;48.082;11.628;2022-08-03T07:57:45;1.48;;;0.60;;
72408;SDS011;60402;48.082;11.628;2022-08-03T08:00:14;1.60;;;1.00;;
72408;SDS011;60402;48.082;11.628;2022-08-03T08:02:42;1.65;;;0.90;;
72408;SDS011;60402;48.082;11.628;2022-08-03T08:05:08;2.40;;;0.98;;
72408;SDS011;60402;48.082;11.628;2022-08-03T08:07:35;2.65;;;0.88;;
72408;SDS011;60402;48.082;11.628;2022-08-03T08:10:01;2.42;;;1.00;;
72408;SDS011;60402;48.082;11.628;2022-08-03T08:12:27;2.25;;;0.80;;
72408;SDS011;60402;48.082;11.628;2022-08-03T08:14:52;1.98;;;0.93;;
72408;SDS011;60402;48.082;11.628;2022-08-03T08:17:17;1.90;;;0.95;;
72408;SDS011;60402;48.082;11.628;2022-08-03T08:19:43;1.85;;;0.90;;
72408;SDS011;60402;48.082;11.628;2022-08-03T08:22:09;1.05;;;0.70;;
72408;SDS011;60402;48.082;11.628;2022-08-03T08:24:35;1.08;;;0.70;;
72408;SDS011;60402;48.082;11.628;2022-08-03T08:27:02;1.63;;;0.70;;
72408;SDS011;60402;48.082;11.628;2022-08-03T08:29:27;2.33;;;0.90;;
72408;SDS011;60402;48.082;11.628;2022-08-03T08:31:56;1.25;;;0.70;;
72408;SDS011;60402;48.082;11.628;2022-08-03T08:34:21;1.98;;;1.00;;
72408;SDS011;60402;48.082;11.628;2022-08-03T08:36:46;2.10;;;0.90;;
72408;SDS011;60402;48.082;11.628;2022-08-03T08:39:12;2.45;;;0.60;;
72408;SDS011;60402;48.082;11.628;2022-08-03T08:41:37;3.00;;;0.73;;
72408;SDS011;60402;48.082;11.628;2022-08-03T08:44:03;3.58;;;1.10;;
72408;SDS011;60402;48.082;11.628;2022-08-03T08:46:31;1.92;;;0.90;;
72408;SDS011;60402;48.082;11.628;2022-08-03T08:48:57;2.22;;;0.80;;
72408;SDS011;60402;48.082;11.628;2022-08-03T08:51:26;4.10;;;0.85;;
72408;SDS011;60402;48.082;11.628;2022-08-03T08:53:53;2.38;;;0.95;;
72408;SDS011;60402;48.082;11.628;2022-08-03T08:56:22;2.88;;;0.82;;
72408;SDS011;60402;48.082;11.628;2022-08-03T08:58:57;1.77;;;0.77;;
72408;SDS011;60402;48.082;11.628;2022-08-03T09:01:23;1.05;;;0.70;;
72408;SDS011;60402;48.082;11.628;2022-08-03T09:03:49;2.17;;;0.85;;
72408;SDS011;60402;48.082;11.628;2022-08-03T09:06:15;1.00;;;0.60;;
72408;SDS011;60402;48.082;11.628;2022-08-03T09:08:41;1.75;;;0.70;;
72408;SDS011;60402;48.082;11.628;2022-08-03T09:11:07;1.45;;;0.63;;
72408;SDS011;60402;48.082;11.628;2022-08-03T09:13:33;2.17;;;0.80;;
72408;SDS011;60402;48.082;11.628;2022-08-03T09:18:43;1.48;;;0.77;;
72408;SDS011;60402;48.082;11.628;2022-08-03T09:23:46;2.47;;;0.77;;
72408;SDS011;60402;48.082;11.628;2022-08-03T09:26:25;2.92;;;0.90;;
72408;SDS011;60402;48.082;11.628;2022-08-03T09:28:58;1.98;;;0.90;;
72408;SDS011;60402;48.082;11.628;2022-08-03T09:31:39;1.63;;;0.82;;
72408;SDS011;60402;48.082;11.628;2022-08-03T09:34:07;2.72;;;0.88;;
72408;SDS011;60402;48.082;11.628;2022-08-03T09:39:14;1.23;;;0.77;;
72408;SDS011;60402;48.082;11.628;2022-08-03T09:41:45;2.88;;;1.00;;
72408;SDS011;60402;48.082;11.628;2022-08-03T09:44:12;1.70;;;0.60;;
72408;SDS011;60402;48.082;11.628;2022-08-03T09:46:54;1.70;;;0.80;;
72408;SDS011;60402;48.082;11.628;2022-08-03T09:49:20;2.45;;;1.35;;
72408;SDS011;60402;48.082;11.628;2022-08-03T09:51:46;1.05;;;0.60;;
72408;SDS011;60402;48.082;11.628;2022-08-03T09:54:12;1.60;;;0.70;;
72408;SDS011;60402;48.082;11.628;2022-08-03T09:56:50;1.48;;;0.68;;
72408;SDS011;60402;48.082;11.628;2022-08-03T09:59:29;1.98;;;0.77;;
72408;SDS011;60402;48.082;11.628;2022-08-03T10:01:56;2.03;;;0.70;;
72408;SDS011;60402;48.082;11.628;2022-08-03T10:04:23;2.67;;;0.70;;
72408;SDS011;60402;48.082;11.628;2022-08-03T10:09:29;1.17;;;0.68;;
72408;SDS011;60402;48.082;11.628;2022-08-03T10:11:55;1.35;;;0.80;;
72408;SDS011;60402;48.082;11.628;2022-08-03T10:14:21;1.35;;;0.70;;
72408;SDS011;60402;48.082;11.628;2022-08-03T10:16:47;2.08;;;0.70;;
72408;SDS011;60402;48.082;11.628;2022-08-03T10:19:13;2.17;;;0.65;;
72408;SDS011;60402;48.082;11.628;2022-08-03T10:21:40;1.48;;;0.80;;
72408;SDS011;60402;48.082;11.628;2022-08-03T10:24:10;1.55;;;0.70;;
72408;SDS011;60402;48.082;11.628;2022-08-03T10:26:39;1.80;;;0.70;;
72408;SDS011;60402;48.082;11.628;2022-08-03T10:29:07;2.22;;;0.70;;
72408;SDS011;60402;48.082;11.628;2022-08-03T10:31:40;1.65;;;0.90;;
72408;SDS011;60402;48.082;11.628;2022-08-03T10:34:13;1.90;;;0.70;;
72408;SDS011;60402;48.082;11.628;2022-08-03T10:36:48;1.90;;;0.80;;
72408;SDS011;60402;48.082;11.628;2022-08-03T10:39:17;2.03;;;1.00;;
72408;SDS011;60402;48.082;11.628;2022-08-03T10:41:45;1.40;;;0.80;;
72408;SDS011;60402;48.082;11.628;2022-08-03T10:44:14;1.63;;;0.60;;
72408;SDS011;60402;48.082;11.628;2022-08-03T10:46:43;1.10;;;0.68;;
72408;SDS011;60402;48.082;11.628;2022-08-03T10:51:40;2.03;;;0.90;;
72408;SDS011;60402;48.082;11.628;2022-08-03T10:54:34;1.77;;;0.70;;
72408;SDS011;60402;48.082;11.628;2022-08-03T11:00:16;1.00;;;0.57;;
72408;SDS011;60402;48.082;11.628;2022-08-03T11:03:02;1.40;;;0.70;;
72408;SDS011;60402;48.082;11.628;2022-08-03T11:05:33;2.60;;;0.60;;
72408;SDS011;60402;48.082;11.628;2022-08-03T11:08:17;1.60;;;0.60;;
72408;SDS011;60402;48.082;11.628;2022-08-03T11:13:43;1.45;;;0.80;;
72408;SDS011;60402;48.082;11.628;2022-08-03T11:16:21;1.17;;;0.68;;
72408;SDS011;60402;48.082;11.628;2022-08-03T11:19:03;1.05;;;0.60;;
72408;SDS011;60402;48.082;11.628;2022-08-03T11:29:54;1.42;;;0.70;;
72408;SDS011;60402;48.082;11.628;2022-08-03T11:37:36;1.00;;;0.52;;
72408;SDS011;60402;48.082;11.628;2022-08-03T11:46:10;1.65;;;0.60;;
72408;SDS011;60402;48.082;11.628;2022-08-03T11:48:42;1.38;;;0.65;;
72408;SDS011;60402;48.082;11.628;2022-08-03T11:53:43;1.67;;;0.60;;
72408;SDS011;60402;48.082;11.628;2022-08-03T11:56:08;1.58;;;0.63;;
72408;SDS011;60402;48.082;11.628;2022-08-03T11:58:33;1.05;;;0.52;;
72408;SDS011;60402;48.082;11.628;2022-08-03T12:01:05;1.73;;;0.80;;
72408;SDS011;60402;48.082;11.628;2022-08-03T12:03:32;1.20;;;0.70;;
72408;SDS011;60402;48.082;11.628;2022-08-03T12:05:58;1.17;;;0.63;;
72408;SDS011;60402;48.082;11.628;2022-08-03T12:10:50;2.83;;;0.80;;
72408;SDS011;60402;48.082;11.628;2022-08-03T12:13:16;1.95;;;0.88;;
72408;SDS011;60402;48.082;11.628;2022-08-03T12:15:43;1.67;;;0.88;;
72408;SDS011;60402;48.082;11.628;2022-08-03T12:18:15;1.45;;;1.00;;
72408;SDS011;60402;48.082;11.628;2022-08-03T12:20:43;1.35;;;0.70;;
72408;SDS011;60402;48.082;11.628;2022-08-03T12:23:11;1.33;;;0.70;;
72408;SDS011;60402;48.082;11.628;2022-08-03T12:25:37;1.48;;;0.70;;
72408;SDS011;60402;48.082;11.628;2022-08-03T12:28:11;1.90;;;0.70;;
72408;SDS011;60402;48.082;11.628;2022-08-03T12:30:40;2.70;;;0.80;;
72408;SDS011;60402;48.082;11.628;2022-08-03T12:33:17;1.63;;;0.52;;
72408;SDS011;60402;48.082;11.628;2022-08-03T12:35:48;1.60;;;0.70;;
72408;SDS011;60402;48.082;11.628;2022-08-03T12:38:25;1.40;;;0.90;;
72408;SDS011;60402;48.082;11.628;2022-08-03T12:40:55;1.77;;;0.80;;
72408;SDS011;60402;48.082;11.628;2022-08-03T12:43:21;1.20;;;0.68;;
72408;SDS011;60402;48.082;11.628;2022-08-03T12:45:47;1.73;;;0.73;;
72408;SDS011;60402;48.082;11.628;2022-08-03T12:48:12;2.08;;;0.90;;
72408;SDS011;60402;48.082;11.628;2022-08-03T12:50:38;1.45;;;0.57;;
72408;SDS011;60402;48.082;11.628;2022-08-03T12:53:07;1.88;;;0.70;;
72408;SDS011;60402;48.082;11.628;2022-08-03T12:55:34;1.40;;;0.65;;
72408;SDS011;60402;48.082;11.628;2022-08-03T12:58:03;1.52;;;0.70;;
72408;SDS011;60402;48.082;11.628;2022-08-03T13:00:34;2.50;;;0.65;;
72408;SDS011;60402;48.082;11.628;2022-08-03T13:03:07;1.65;;;0.70;;
72408;SDS011;60402;48.082;11.628;2022-08-03T13:05:45;0.50;;;0.50;;
72408;SDS011;60402;48.082;11.628;2022-08-03T13:08:20;0.82;;;0.60;;
72408;SDS011;60402;48.082;11.628;2022-08-03T13:10:47;1.52;;;0.73;;
72408;SDS011;60402;48.082;11.628;2022-08-03T13:13:12;1.58;;;0.70;;
72408;SDS011;60402;48.082;11.628;2022-08-03T13:15:38;1.75;;;0.80;;
72408;SDS011;60402;48.082;11.628;2022-08-03T13:18:04;1.30;;;0.70;;
72408;SDS011;60402;48.082;11.628;2022-08-03T13:20:29;1.85;;;0.80;;
72408;SDS011;60402;48.082;11.628;2022-08-03T13:22:55;1.02;;;0.70;;
72408;SDS011;60402;48.082;11.628;2022-08-03T13:25:20;2.03;;;0.90;;
72408;SDS011;60402;48.082;11.628;2022-08-03T13:27:46;1.88;;;0.73;;
72408;SDS011;60402;48.082;11.628;2022-08-03T13:30:13;2.28;;;0.82;;
72408;SDS011;60402;48.082;11.628;2022-08-03T13:32:38;1.65;;;0.80;;
72408;SDS011;60402;48.082;11.628;2022-08-03T13:35:04;1.75;;;0.60;;
72408;SDS011;60402;48.082;11.628;2022-08-03T13:37:31;1.20;;;0.68;;
72408;SDS011;60402;48.082;11.628;2022-08-03T13:39:57;1.85;;;0.70;;
72408;SDS011;60402;48.082;11.628;2022-08-03T13:42:22;1.27;;;0.82;;
72408;SDS011;60402;48.082;11.628;2022-08-03T13:44:48;0.98;;;0.50;;
72408;SDS011;60402;48.082;11.628;2022-08-03T13:47:14;3.38;;;0.70;;
72408;SDS011;60402;48.082;11.628;2022-08-03T13:49:40;2.30;;;0.75;;
72408;SDS011;60402;48.082;11.628;2022-08-03T13:52:06;1.45;;;0.73;;
72408;SDS011;60402;48.082;11.628;2022-08-03T13:54:31;1.55;;;0.73;;
72408;SDS011;60402;48.082;11.628;2022-08-03T13:56:57;2.50;;;0.75;;
72408;SDS011;60402;48.082;11.628;2022-08-03T13:59:23;1.08;;;0.65;;
72408;SDS011;60402;48.082;11.628;2022-08-03T14:01:50;1.48;;;0.70;;
72408;SDS011;60402;48.082;11.628;2022-08-03T14:04:16;0.75;;;0.60;;
72408;SDS011;60402;48.082;11.628;2022-08-03T14:06:42;0.80;;;0.60;;
72408;SDS011;60402;48.082;11.628;2022-08-03T14:09:09;1.60;;;0.70;;
72408;SDS011;60402;48.082;11.628;2022-08-03T14:11:38;1.08;;;0.73;;
72408;SDS011;60402;48.082;11.628;2022-08-03T14:14:06;1.00;;;0.60;;
72408;SDS011;60402;48.082;11.628;2022-08-03T14:16:32;2.15;;;0.80;;
72408;SDS011;60402;48.082;11.628;2022-08-03T14:18:57;3.17;;;0.93;;
72408;SDS011;60402;48.082;11.628;2022-08-03T14:21:22;1.00;;;0.70;;
72408;SDS011;60402;48.082;11.628;2022-08-03T14:23:48;1.45;;;0.70;;
72408;SDS011;60402;48.082;11.628;2022-08-03T14:26:13;1.20;;;0.60;;
72408;SDS011;60402;48.082;11.628;2022-08-03T14:28:39;1.23;;;0.57;;
72408;SDS011;60402;48.082;11.628;2022-08-03T14:31:04;2.10;;;0.70;;
72408;SDS011;60402;48.082;11.628;2022-08-03T14:33:30;1.33;;;0.75;;
72408;SDS011;60402;48.082;11.628;2022-08-03T14:35:55;1.33;;;0.65;;
72408;SDS011;60402;48.082;11.628;2022-08-03T14:38:20;2.90;;;0.88;;
72408;SDS011;60402;48.082;11.628;2022-08-03T14:40:46;2.08;;;0.80;;
72408;SDS011;60402;48.082;11.628;2022-08-03T14:43:12;1.52;;;0.70;;
72408;SDS011;60402;48.082;11.628;2022-08-03T14:45:38;2.15;;;0.80;;
72408;SDS011;60402;48.082;11.628;2022-08-03T14:48:05;2.42;;;0.70;;
72408;SDS011;60402;48.082;11.628;2022-08-03T14:50:30;1.33;;;0.65;;
72408;SDS011;60402;48.082;11.628;2022-08-03T14:52:55;1.88;;;0.80;;
72408;SDS011;60402;48.082;11.628;2022-08-03T14:55:21;1.58;;;0.70;;
72408;SDS011;60402;48.082;11.628;2022-08-03T14:57:46;1.85;;;0.85;;
72408;SDS011;60402;48.082;11.628;2022-08-03T15:00:12;3.10;;;0.77;;
72408;SDS011;60402;48.082;11.628;2022-08-03T15:02:38;2.33;;;0.80;;
72408;SDS011;60402;48.082;11.628;2022-08-03T15:05:03;3.50;;;0.70;;
72408;SDS011;60402;48.082;11.628;2022-08-03T15:07:29;2.03;;;0.88;;
72408;SDS011;60402;48.082;11.628;2022-08-03T15:09:54;2.22;;;0.80;;
72408;SDS011;60402;48.082;11.628;2022-08-03T15:12:19;1.52;;;0.80;;
72408;SDS011;60402;48.082;11.628;2022-08-03T15:14:45;2.97;;;0.70;;
72408;SDS011;60402;48.082;11.628;2022-08-03T15:17:10;2.15;;;0.82;;
72408;SDS011;60402;48.082;11.628;2022-08-03T15:19:36;2.10;;;0.90;;
72408;SDS011;60402;48.082;11.628;2022-08-03T15:22:01;2.30;;;0.80;;
72408;SDS011;60402;48.082;11.628;2022-08-03T15:24:27;2.83;;;0.80;;
72408;SDS011;60402;48.082;11.628;2022-08-03T15:26:52;1.60;;;0.90;;
72408;SDS011;60402;48.082;11.628;2022-08-03T15:29:18;2.35;;;0.90;;
72408;SDS011;60402;48.082;11.628;2022-08-03T15:31:44;1.63;;;0.82;;
72408;SDS011;60402;48.082;11.628;2022-08-03T15:34:09;2.85;;;1.00;;
72408;SDS011;60402;48.082;11.628;2022-08-03T15:36:36;1.15;;;0.65;;